createdAt,value
2017-04-27T00:05:46.425Z,1009.84
2017-04-27T00:08:13.031Z,1009.84
2017-04-27T00:08:53.903Z,1009.9
2017-04-27T01:09:02.758Z,1009.84
2017-04-27T01:09:43.685Z,1009.88
2017-04-27T01:15:04.119Z,1009.88
2017-04-27T01:15:46.579Z,1009.88
2017-04-27T01:19:17.905Z,1009.88
2017-04-27T01:27:59.310Z,1009.82
2017-04-27T01:28:40.201Z,1009.79
2017-04-27T01:30:33.552Z,1009.83
2017-04-27T01:31:21.129Z,1009.79
2017-04-27T01:32:02.003Z,1009.83
2017-04-27T01:40:06.719Z,1009.75
2017-04-27T01:40:47.610Z,1009.79
2017-04-27T01:41:28.496Z,1009.78
2017-04-27T01:42:09.341Z,1009.76
2017-04-27T01:42:56.941Z,1009.77
2017-04-27T01:43:37.797Z,1009.76
2017-04-27T01:44:18.675Z,1009.78
2017-04-27T01:45:06.078Z,1009.77
2017-04-27T01:45:46.958Z,1009.8
2017-04-27T01:46:27.829Z,1009.75
2017-04-27T01:47:08.704Z,1009.76
2017-04-27T01:47:49.571Z,1009.74
2017-04-27T01:48:30.456Z,1009.72
2017-04-27T01:49:11.316Z,1009.7
2017-04-27T01:49:52.216Z,1009.68
2017-04-27T01:50:33.117Z,1009.68
2017-04-27T01:51:13.931Z,1009.65
2017-04-27T01:51:54.790Z,1009.65
2017-04-27T01:52:35.666Z,1009.64
2017-04-27T01:53:16.526Z,1009.62
2017-04-27T01:53:57.405Z,1009.64
2017-04-27T01:54:41.187Z,1009.63
2017-04-27T01:55:22.067Z,1009.61
2017-04-27T01:56:02.942Z,1009.63
2017-04-27T01:56:43.846Z,1009.63
2017-04-27T01:57:24.730Z,1009.65
2017-04-27T01:58:07.186Z,1009.6
2017-04-27T01:58:48.049Z,1009.65
2017-04-27T01:59:28.927Z,1009.66
2017-04-27T02:00:12.559Z,1009.62
2017-04-27T02:00:53.443Z,1009.68
2017-04-27T02:01:34.381Z,1009.62
2017-04-27T02:02:15.156Z,1009.65
2017-04-27T02:02:56.031Z,1009.65
2017-04-27T02:06:40.827Z,1009.56
2017-04-27T02:07:21.759Z,1009.58
2017-04-27T02:08:02.612Z,1009.57
2017-04-27T02:08:43.483Z,1009.56
2017-04-27T02:11:12.590Z,1009.54
2017-04-27T02:11:53.490Z,1009.54
2017-04-27T02:12:35.282Z,1009.53
2017-04-27T02:13:19.203Z,1009.52
2017-04-27T02:14:14.853Z,1009.53
2017-04-27T02:14:55.800Z,1009.53
2017-04-27T02:17:04.017Z,1009.51
2017-04-27T02:17:44.920Z,1009.49
2017-04-27T02:19:24.269Z,1009.47
2017-04-27T02:20:05.117Z,1009.51
2017-04-27T02:20:45.990Z,1009.51
2017-04-27T02:21:26.845Z,1009.49
2017-04-27T02:23:40.689Z,1009.41
2017-04-27T02:27:33.176Z,1009.36
2017-04-27T02:29:56.861Z,1009.38
2017-04-27T02:30:37.857Z,1009.39
2017-04-27T02:31:18.732Z,1009.35
2017-04-27T02:33:32.404Z,1009.28
2017-04-27T02:34:13.280Z,1009.31
2017-04-27T02:34:54.232Z,1009.27
2017-04-27T02:35:37.613Z,1009.23
2017-04-27T02:36:18.487Z,1009.27
2017-04-27T02:41:58.436Z,1009.36
2017-04-27T02:42:39.300Z,1009.37
2017-04-27T02:46:41.270Z,1009.46
2017-04-27T02:47:22.167Z,1009.42
2017-04-27T02:48:03.038Z,1009.4
2017-04-27T02:50:32.119Z,1009.33
2017-04-27T02:51:13.015Z,1009.37
2017-04-27T02:55:16.125Z,1009.41
2017-04-27T02:55:56.918Z,1009.43
2017-04-27T02:56:37.853Z,1009.45
2017-04-27T03:00:10.357Z,1009.56
2017-04-27T03:00:51.375Z,1009.54
2017-04-27T03:01:46.981Z,1009.52
2017-04-27T03:02:27.850Z,1009.52
2017-04-27T03:04:21.248Z,1009.51
2017-04-27T03:06:50.333Z,1009.48
2017-04-27T03:07:31.209Z,1009.48
2017-04-27T03:09:50.080Z,1009.55
2017-04-27T03:10:30.966Z,1009.54
2017-04-27T03:11:11.844Z,1009.58
2017-04-27T03:13:32.480Z,1009.54
2017-04-27T03:14:18.597Z,1009.49
2017-04-27T03:16:16.892Z,1009.45
2017-04-27T03:17:02.936Z,1009.47
2017-04-27T03:18:56.266Z,1009.48
2017-04-27T03:19:37.143Z,1009.49
2017-04-27T03:20:32.899Z,1009.5
2017-04-27T03:21:13.749Z,1009.5
2017-04-27T03:21:54.626Z,1009.47
2017-04-27T03:25:20.863Z,1009.42
2017-04-27T03:27:16.091Z,1009.4
2017-04-27T03:27:57.117Z,1009.43
2017-04-27T03:31:24.259Z,1009.5
2017-04-27T03:32:05.131Z,1009.57
2017-04-27T03:32:45.975Z,1009.54
2017-04-27T03:33:26.867Z,1009.54
2017-04-27T03:34:14.350Z,1009.55
2017-04-27T03:34:55.273Z,1009.52
2017-04-27T03:36:54.188Z,1009.46
2017-04-27T03:37:35.012Z,1009.48
2017-04-27T03:38:15.877Z,1009.48
2017-04-27T03:38:56.745Z,1009.52
2017-04-27T03:39:37.604Z,1009.55
2017-04-27T03:40:18.560Z,1009.59
2017-04-27T03:40:59.441Z,1009.59
2017-04-27T03:41:40.281Z,1009.66
2017-04-27T03:42:25.779Z,1009.63
2017-04-27T03:43:06.649Z,1009.6
2017-04-27T03:43:47.516Z,1009.61
2017-04-27T03:44:31.794Z,1009.6
2017-04-27T03:45:12.690Z,1009.59
2017-04-27T03:48:45.378Z,1009.66
2017-04-27T03:54:25.393Z,1009.77
2017-04-27T03:56:39.125Z,1009.8
2017-04-27T03:58:32.477Z,1009.87
2017-04-27T04:02:35.215Z,1009.93
2017-04-27T04:03:16.089Z,1009.94
2017-04-27T04:05:45.172Z,1009.88
2017-04-27T04:06:30.683Z,1009.95
2017-04-27T04:07:26.391Z,1009.87
2017-04-27T04:08:07.317Z,1009.89
2017-04-27T04:08:48.144Z,1009.89
2017-04-27T04:09:29.027Z,1009.87
2017-04-27T04:11:42.758Z,1009.87
2017-04-27T04:12:23.677Z,1009.92
2017-04-27T04:13:04.524Z,1009.94
2017-04-27T04:15:33.666Z,1009.95
2017-04-27T04:16:14.518Z,1009.97
2017-04-27T04:16:55.379Z,1009.94
2017-04-27T04:17:36.259Z,1010
2017-04-27T04:18:31.885Z,1009.99
2017-04-27T04:19:12.773Z,1010.02
2017-04-27T04:19:53.656Z,1010
2017-04-27T04:20:34.529Z,1009.98
2017-04-27T04:21:15.383Z,1010.02
2017-04-27T04:23:44.464Z,1010.08
2017-04-27T04:24:25.334Z,1010.12
2017-04-27T04:25:07.315Z,1010.17
2017-04-27T04:25:48.237Z,1010.19
2017-04-27T04:26:29.113Z,1010.22
2017-04-27T04:27:09.970Z,1010.23
2017-04-27T04:27:50.840Z,1010.19
2017-04-27T04:28:31.704Z,1010.23
2017-04-27T04:29:12.578Z,1010.22
2017-04-27T04:29:53.459Z,1010.23
2017-04-27T04:32:07.264Z,1010.23
2017-04-27T04:33:02.890Z,1010.24
2017-04-27T04:33:43.787Z,1010.24
2017-04-27T04:34:24.665Z,1010.28
2017-04-27T04:35:08.023Z,1010.28
2017-04-27T04:35:48.901Z,1010.31
2017-04-27T04:36:32.432Z,1010.33
2017-04-27T04:37:13.253Z,1010.34
2017-04-27T04:37:54.111Z,1010.34
2017-04-27T04:39:28.638Z,1010.41
2017-04-27T04:41:27.994Z,1010.44
2017-04-27T04:42:39.908Z,1010.42
2017-04-27T04:45:17.900Z,1010.41
2017-04-27T04:45:58.766Z,1010.41
2017-04-27T04:46:39.745Z,1010.39
2017-04-27T04:47:20.563Z,1010.41
2017-04-27T04:48:01.422Z,1010.46
2017-04-27T04:48:42.272Z,1010.41
2017-04-27T04:49:23.136Z,1010.39
2017-04-27T04:50:04.030Z,1010.37
2017-04-27T04:50:44.879Z,1010.35
2017-04-27T04:51:25.779Z,1010.37
2017-04-27T04:52:06.648Z,1010.32
2017-04-27T04:52:47.586Z,1010.35
2017-04-27T04:53:28.490Z,1010.32
2017-04-27T04:54:09.343Z,1010.31
2017-04-27T04:54:50.201Z,1010.32
2017-04-27T04:55:31.058Z,1010.33
2017-04-27T04:56:11.935Z,1010.35
2017-04-27T04:56:52.796Z,1010.33
2017-04-27T04:59:37.863Z,1010.33
2017-04-27T05:00:18.750Z,1010.36
2017-04-27T05:00:59.653Z,1010.35
2017-04-27T05:01:55.239Z,1010.37
2017-04-27T05:02:36.108Z,1010.35
2017-04-27T05:03:16.994Z,1010.32
2017-04-27T05:03:57.923Z,1010.33
2017-04-27T05:04:38.801Z,1010.39
2017-04-27T05:05:19.692Z,1010.35
2017-04-27T05:06:00.610Z,1010.35
2017-04-27T05:06:41.482Z,1010.43
2017-04-27T05:07:22.362Z,1010.36
2017-04-27T05:08:03.230Z,1010.39
2017-04-27T05:08:44.126Z,1010.43
2017-04-27T05:09:25.010Z,1010.38
2017-04-27T05:10:05.863Z,1010.43
2017-04-27T05:10:46.745Z,1010.39
2017-04-27T05:11:27.624Z,1010.44
2017-04-27T05:12:08.501Z,1010.47
2017-04-27T05:12:50.430Z,1010.53
2017-04-27T05:13:31.323Z,1010.5
2017-04-27T05:14:12.162Z,1010.5
2017-04-27T05:14:53.052Z,1010.52
2017-04-27T05:15:33.929Z,1010.52
2017-04-27T05:16:14.811Z,1010.55
2017-04-27T05:16:55.689Z,1010.51
2017-04-27T05:17:36.558Z,1010.61
2017-04-27T05:18:17.439Z,1010.56
2017-04-27T05:18:58.325Z,1010.59
2017-04-27T05:19:39.215Z,1010.59
2017-04-27T05:20:20.076Z,1010.57
2017-04-27T05:21:00.950Z,1010.59
2017-04-27T05:21:41.824Z,1010.58
2017-04-27T05:22:22.703Z,1010.59
2017-04-27T05:23:03.590Z,1010.63
2017-04-27T05:23:44.435Z,1010.59
2017-04-27T05:24:25.335Z,1010.61
2017-04-27T05:25:06.174Z,1010.64
2017-04-27T05:25:47.086Z,1010.65
2017-04-27T05:26:27.971Z,1010.68
2017-04-27T05:27:08.834Z,1010.72
2017-04-27T05:27:49.684Z,1010.71
2017-04-27T05:28:30.558Z,1010.75
2017-04-27T05:29:11.424Z,1010.78
2017-04-27T05:29:52.311Z,1010.81
2017-04-27T05:30:33.196Z,1010.81
2017-04-27T05:31:14.340Z,1010.81
2017-04-27T05:31:55.020Z,1010.8
2017-04-27T05:32:35.875Z,1010.82
2017-04-27T05:33:16.752Z,1010.8
2017-04-27T05:33:57.651Z,1010.8
2017-04-27T05:34:38.542Z,1010.74
2017-04-27T05:35:19.421Z,1010.82
2017-04-27T05:36:00.358Z,1010.83
2017-04-27T05:36:41.237Z,1010.79
2017-04-27T05:37:22.116Z,1010.81
2017-04-27T05:38:02.995Z,1010.81
2017-04-27T05:38:43.863Z,1010.81
2017-04-27T05:39:24.749Z,1010.78
2017-04-27T05:40:05.621Z,1010.76
2017-04-27T05:40:46.537Z,1010.71
2017-04-27T05:41:27.409Z,1010.7
2017-04-27T05:42:08.289Z,1010.73
2017-04-27T05:42:49.161Z,1010.69
2017-04-27T05:43:30.028Z,1010.71
2017-04-27T05:44:10.943Z,1010.73
2017-04-27T05:44:51.823Z,1010.68
2017-04-27T05:45:32.703Z,1010.64
2017-04-27T05:46:13.601Z,1010.63
2017-04-27T05:46:54.495Z,1010.62
2017-04-27T05:47:35.370Z,1010.56
2017-04-27T05:48:16.264Z,1010.55
2017-04-27T05:48:57.127Z,1010.58
2017-04-27T05:49:37.967Z,1010.57
2017-04-27T05:50:18.847Z,1010.58
2017-04-27T05:50:59.713Z,1010.61
2017-04-27T05:51:40.590Z,1010.61
2017-04-27T05:52:21.478Z,1010.6
2017-04-27T05:53:02.363Z,1010.59
2017-04-27T05:54:55.990Z,1010.64
2017-04-27T05:55:36.861Z,1010.62
2017-04-27T05:56:17.734Z,1010.6
2017-04-27T05:56:58.601Z,1010.62
2017-04-27T05:57:39.472Z,1010.59
2017-04-27T05:58:20.375Z,1010.6
2017-04-27T05:59:01.254Z,1010.62
2017-04-27T05:59:42.146Z,1010.64
2017-04-27T06:00:23.017Z,1010.67
2017-04-27T06:01:03.955Z,1010.72
2017-04-27T06:01:44.831Z,1010.7
2017-04-27T06:02:25.728Z,1010.74
2017-04-27T06:03:06.615Z,1010.75
2017-04-27T06:03:47.518Z,1010.82
2017-04-27T06:04:28.384Z,1010.77
2017-04-27T06:05:09.264Z,1010.75
2017-04-27T06:05:50.133Z,1010.77
2017-04-27T06:06:31.010Z,1010.75
2017-04-27T06:07:11.882Z,1010.79
2017-04-27T06:07:52.755Z,1010.75
2017-04-27T06:08:33.645Z,1010.78
2017-04-27T06:09:14.512Z,1010.77
2017-04-27T06:09:55.399Z,1010.85
2017-04-27T06:10:36.255Z,1010.81
2017-04-27T06:11:17.137Z,1010.78
2017-04-27T06:11:58.013Z,1010.78
2017-04-27T06:12:38.906Z,1010.73
2017-04-27T06:13:19.778Z,1010.73
2017-04-27T06:14:00.651Z,1010.79
2017-04-27T06:14:41.519Z,1010.77
2017-04-27T06:15:22.407Z,1010.77
2017-04-27T06:16:03.288Z,1010.8
2017-04-27T06:16:44.169Z,1010.85
2017-04-27T06:17:25.125Z,1010.85
2017-04-27T06:18:06.003Z,1010.85
2017-04-27T06:18:46.868Z,1010.84
2017-04-27T06:19:27.760Z,1010.87
2017-04-27T06:20:08.638Z,1010.82
2017-04-27T06:20:49.544Z,1010.77
2017-04-27T06:21:30.418Z,1010.82
2017-04-27T06:22:11.303Z,1010.78
2017-04-27T06:22:52.189Z,1010.79
2017-04-27T06:23:33.068Z,1010.78
2017-04-27T06:24:14.681Z,1010.79
2017-04-27T06:24:55.564Z,1010.79
2017-04-27T06:25:36.442Z,1010.81
2017-04-27T06:26:17.317Z,1010.78
2017-04-27T06:26:58.182Z,1010.76
2017-04-27T06:27:39.045Z,1010.71
2017-04-27T06:28:19.894Z,1010.67
2017-04-27T06:29:00.785Z,1010.63
2017-04-27T06:29:41.711Z,1010.55
2017-04-27T06:30:22.661Z,1010.56
2017-04-27T06:31:03.563Z,1010.61
2017-04-27T06:31:44.432Z,1010.67
2017-04-27T06:32:25.294Z,1010.7
2017-04-27T06:33:06.255Z,1010.71
2017-04-27T06:33:47.131Z,1010.73
2017-04-27T06:34:28.007Z,1010.73
2017-04-27T06:35:08.889Z,1010.73
2017-04-27T06:35:49.897Z,1010.74
2017-04-27T06:36:30.796Z,1010.73
2017-04-27T06:37:11.667Z,1010.68
2017-04-27T06:37:52.556Z,1010.65
2017-04-27T06:38:33.495Z,1010.66
2017-04-27T06:39:14.362Z,1010.7
2017-04-27T06:39:55.264Z,1010.76
2017-04-27T06:40:36.151Z,1010.78
2017-04-27T06:41:17.081Z,1010.84
2017-04-27T06:41:57.953Z,1010.78
2017-04-27T06:42:38.821Z,1010.8
2017-04-27T06:43:19.693Z,1010.78
2017-04-27T06:44:00.572Z,1010.82
2017-04-27T06:44:41.454Z,1010.76
2017-04-27T06:45:22.361Z,1010.81
2017-04-27T06:46:03.229Z,1010.82
2017-04-27T06:46:44.110Z,1010.84
2017-04-27T06:47:25.005Z,1010.83
2017-04-27T06:48:05.894Z,1010.84
2017-04-27T06:48:46.768Z,1010.83
2017-04-27T06:49:27.640Z,1010.8
2017-04-27T06:50:08.555Z,1010.76
2017-04-27T06:50:49.429Z,1010.84
2017-04-27T06:51:33.899Z,1010.87
2017-04-27T06:52:13.890Z,1010.81
2017-04-27T06:52:54.763Z,1010.79
2017-04-27T06:53:35.643Z,1010.81
2017-04-27T06:54:16.526Z,1010.78
2017-04-27T06:54:57.399Z,1010.81
2017-04-27T06:55:38.280Z,1010.81
2017-04-27T06:56:19.152Z,1010.8
2017-04-27T06:57:00.036Z,1010.85
2017-04-27T06:57:40.915Z,1010.85
2017-04-27T06:58:21.818Z,1010.9
2017-04-27T06:59:02.715Z,1010.92
2017-04-27T06:59:43.552Z,1010.93
2017-04-27T07:00:24.434Z,1010.99
2017-04-27T07:01:05.320Z,1010.97
2017-04-27T07:01:46.209Z,1011.02
2017-04-27T07:05:49.185Z,1011.06
2017-04-27T07:06:30.074Z,1011.04
2017-04-27T07:07:13.650Z,1010.99
2017-04-27T07:07:54.525Z,1011.01
2017-04-27T07:08:35.414Z,1011.01
2017-04-27T07:09:17.154Z,1011.01
2017-04-27T07:09:58.054Z,1011
2017-04-27T07:10:38.942Z,1011.03
2017-04-27T07:14:25.611Z,1011.01
2017-04-27T07:15:06.523Z,1011
2017-04-27T07:15:47.403Z,1011.03
2017-04-27T07:18:16.572Z,1011.09
2017-04-27T07:18:57.472Z,1011.14
2017-04-27T07:19:53.075Z,1011.12
2017-04-27T07:20:33.968Z,1011.15
2017-04-27T07:21:14.839Z,1011.18
2017-04-27T07:21:55.867Z,1011.16
2017-04-27T07:22:36.718Z,1011.16
2017-04-27T07:23:17.609Z,1011.2
2017-04-27T07:23:58.491Z,1011.2
2017-04-27T07:24:39.391Z,1011.16
2017-04-27T07:25:20.274Z,1011.17
2017-04-27T07:26:01.234Z,1011.17
2017-04-27T07:26:42.126Z,1011.2
2017-04-27T07:27:23.012Z,1011.18
2017-04-27T07:28:03.937Z,1011.19
2017-04-27T07:28:44.810Z,1011.16
2017-04-27T07:29:25.683Z,1011.18
2017-04-27T07:30:06.576Z,1011.22
2017-04-27T07:30:47.466Z,1011.18
2017-04-27T07:31:28.362Z,1011.14
2017-04-27T07:32:09.251Z,1011.17
2017-04-27T07:32:50.185Z,1011.22
2017-04-27T07:33:31.078Z,1011.25
2017-04-27T07:34:11.985Z,1011.25
2017-04-27T07:34:52.844Z,1011.3
2017-04-27T07:35:33.731Z,1011.33
2017-04-27T07:36:14.631Z,1011.36
2017-04-27T07:36:55.484Z,1011.31
2017-04-27T07:37:36.385Z,1011.31
2017-04-27T07:38:17.321Z,1011.3
2017-04-27T07:38:58.209Z,1011.28
2017-04-27T07:39:39.102Z,1011.25
2017-04-27T07:40:19.968Z,1011.28
2017-04-27T07:41:00.844Z,1011.23
2017-04-27T07:41:41.729Z,1011.24
2017-04-27T07:42:22.612Z,1011.23
2017-04-27T07:43:03.503Z,1011.25
2017-04-27T07:43:44.418Z,1011.17
2017-04-27T07:44:25.292Z,1011.14
2017-04-27T07:45:06.178Z,1011.08
2017-04-27T07:45:47.082Z,1011.09
2017-04-27T07:46:27.947Z,1011.05
2017-04-27T07:47:08.853Z,1011.12
2017-04-27T07:47:49.742Z,1011.12
2017-04-27T07:48:30.617Z,1011.14
2017-04-27T07:49:11.520Z,1011.16
2017-04-27T07:49:52.398Z,1011.11
2017-04-27T07:50:33.258Z,1011.07
2017-04-27T07:51:14.142Z,1011.07
2017-04-27T07:51:55.023Z,1011.06
2017-04-27T07:52:35.912Z,1011.03
2017-04-27T07:53:16.955Z,1011.04
2017-04-27T07:53:57.881Z,1011.07
2017-04-27T07:54:38.765Z,1011.12
2017-04-27T07:55:19.725Z,1011.15
2017-04-27T07:56:00.617Z,1011.15
2017-04-27T07:56:41.513Z,1011.13
2017-04-27T07:57:22.401Z,1011.14
2017-04-27T07:58:03.386Z,1011.14
2017-04-27T07:58:44.269Z,1011.04
2017-04-27T07:59:25.192Z,1011.11
2017-04-27T08:00:06.060Z,1011.1
2017-04-27T08:00:47.813Z,1011.06
2017-04-27T08:01:28.731Z,1011.09
2017-04-27T08:02:09.635Z,1011.07
2017-04-27T08:02:50.490Z,1011.14
2017-04-27T08:03:31.379Z,1011.14
2017-04-27T08:04:12.243Z,1011.16
2017-04-27T08:04:53.125Z,1011.16
2017-04-27T08:05:34.029Z,1011.19
2017-04-27T08:06:14.936Z,1011.27
2017-04-27T08:06:55.803Z,1011.24
2017-04-27T08:07:36.741Z,1011.25
2017-04-27T08:08:17.608Z,1011.3
2017-04-27T08:08:58.482Z,1011.27
2017-04-27T08:09:39.361Z,1011.28
2017-04-27T08:10:20.268Z,1011.3
2017-04-27T08:11:01.128Z,1011.34
2017-04-27T08:11:42.035Z,1011.29
2017-04-27T08:12:22.894Z,1011.29
2017-04-27T08:13:03.805Z,1011.33
2017-04-27T08:13:44.722Z,1011.29
2017-04-27T08:14:25.592Z,1011.28
2017-04-27T08:15:06.473Z,1011.34
2017-04-27T08:15:47.367Z,1011.36
2017-04-27T08:16:28.233Z,1011.38
2017-04-27T08:17:09.139Z,1011.37
2017-04-27T08:17:50.007Z,1011.4
2017-04-27T08:18:30.908Z,1011.41
2017-04-27T08:19:11.799Z,1011.63
2017-04-27T08:19:52.696Z,1011.69
2017-04-27T08:20:33.600Z,1011.84
2017-04-27T08:21:14.464Z,1011.8
2017-04-27T08:21:55.356Z,1011.64
2017-04-27T08:22:36.248Z,1011.53
2017-04-27T08:25:06.139Z,1011.36
2017-04-27T08:25:47.062Z,1011.26
2017-04-27T08:26:27.946Z,1011.26
2017-04-27T08:27:08.841Z,1011.32
2017-04-27T08:27:49.724Z,1011.34
2017-04-27T08:28:30.604Z,1011.35
2017-04-27T08:29:11.498Z,1011.35
2017-04-27T08:29:52.380Z,1011.38
2017-04-27T08:30:33.288Z,1011.37
2017-04-27T08:31:14.175Z,1011.31
2017-04-27T08:31:55.072Z,1011.31
2017-04-27T08:32:35.952Z,1011.28
2017-04-27T08:33:16.834Z,1011.34
2017-04-27T08:33:57.720Z,1011.36
2017-04-27T08:34:38.622Z,1011.34
2017-04-27T08:35:19.507Z,1011.41
2017-04-27T08:36:00.421Z,1011.41
2017-04-27T08:36:41.317Z,1011.45
2017-04-27T08:37:22.213Z,1011.46
2017-04-27T08:38:03.123Z,1011.46
2017-04-27T08:38:44.015Z,1011.42
2017-04-27T08:40:38.627Z,1011.32
2017-04-27T08:41:19.519Z,1011.33
2017-04-27T08:42:00.418Z,1011.36
2017-04-27T08:42:41.311Z,1011.36
2017-04-27T08:46:38.288Z,1011.24
2017-04-27T08:47:20.113Z,1011.26
2017-04-27T08:48:00.997Z,1011.28
2017-04-27T08:48:41.880Z,1011.23
2017-04-27T08:49:22.795Z,1011.27
2017-04-27T08:50:03.654Z,1011.33
2017-04-27T08:50:44.555Z,1011.3
2017-04-27T08:51:25.430Z,1011.35
2017-04-27T08:52:06.313Z,1011.32
2017-04-27T08:52:47.194Z,1011.37
2017-04-27T08:53:28.090Z,1011.39
2017-04-27T08:54:08.982Z,1011.38
2017-04-27T08:54:49.889Z,1011.34
2017-04-27T08:55:32.611Z,1011.35
2017-04-27T08:56:13.500Z,1011.3
2017-04-27T08:56:54.399Z,1011.29
2017-04-27T08:57:35.286Z,1011.27
2017-04-27T08:58:16.175Z,1011.3
2017-04-27T08:58:57.064Z,1011.34
2017-04-27T08:59:37.941Z,1011.4
2017-04-27T09:00:18.872Z,1011.4
2017-04-27T09:00:59.787Z,1011.4
2017-04-27T09:01:40.659Z,1011.45
2017-04-27T09:02:21.524Z,1011.44
2017-04-27T09:03:02.416Z,1011.4
2017-04-27T09:03:43.299Z,1011.42
2017-04-27T09:04:25.006Z,1011.41
2017-04-27T09:05:05.899Z,1011.36
2017-04-27T09:05:46.801Z,1011.42
2017-04-27T09:06:27.687Z,1011.37
2017-04-27T09:07:08.568Z,1011.34
2017-04-27T09:07:49.458Z,1011.31
2017-04-27T09:08:30.349Z,1011.34
2017-04-27T09:09:11.247Z,1011.4
2017-04-27T09:09:52.137Z,1011.34
2017-04-27T09:10:33.025Z,1011.3
2017-04-27T09:11:13.890Z,1011.32
2017-04-27T09:11:55.748Z,1011.35
2017-04-27T09:12:36.669Z,1011.29
2017-04-27T09:13:17.565Z,1011.35
2017-04-27T09:13:58.439Z,1011.36
2017-04-27T09:14:39.331Z,1011.34
2017-04-27T09:15:20.214Z,1011.34
2017-04-27T09:16:01.089Z,1011.35
2017-04-27T09:16:41.977Z,1011.34
2017-04-27T09:17:22.872Z,1011.31
2017-04-27T09:18:03.745Z,1011.31
2017-04-27T09:18:44.649Z,1011.32
2017-04-27T09:19:25.520Z,1011.32
2017-04-27T09:20:06.388Z,1011.35
2017-04-27T09:20:47.284Z,1011.37
2017-04-27T09:21:28.160Z,1011.4
2017-04-27T09:22:09.042Z,1011.36
2017-04-27T09:22:49.930Z,1011.32
2017-04-27T09:23:30.816Z,1011.3
2017-04-27T09:24:11.683Z,1011.33
2017-04-27T09:24:52.572Z,1011.31
2017-04-27T09:25:33.466Z,1011.32
2017-04-27T09:26:14.367Z,1011.3
2017-04-27T09:26:55.244Z,1011.29
2017-04-27T09:27:36.123Z,1011.28
2017-04-27T09:28:17.014Z,1011.22
2017-04-27T09:28:57.899Z,1011.25
2017-04-27T09:29:38.780Z,1011.22
2017-04-27T09:30:19.680Z,1011.22
2017-04-27T09:31:00.552Z,1011.24
2017-04-27T09:31:41.441Z,1011.22
2017-04-27T09:32:22.323Z,1011.21
2017-04-27T09:33:03.195Z,1011.24
2017-04-27T09:33:44.071Z,1011.26
2017-04-27T09:34:24.961Z,1011.28
2017-04-27T09:35:05.842Z,1011.26
2017-04-27T09:35:46.714Z,1011.24
2017-04-27T09:36:27.585Z,1011.36
2017-04-27T09:37:08.466Z,1011.28
2017-04-27T09:37:49.357Z,1011.25
2017-04-27T09:38:31.180Z,1011.24
2017-04-27T09:39:12.047Z,1011.23
2017-04-27T09:39:52.936Z,1011.21
2017-04-27T09:40:33.822Z,1011.22
2017-04-27T09:41:14.691Z,1011.25
2017-04-27T09:41:55.575Z,1011.22
2017-04-27T09:42:36.467Z,1011.25
2017-04-27T09:43:17.355Z,1011.21
2017-04-27T09:43:58.252Z,1011.83
2017-04-27T09:44:41.823Z,1011.77
2017-04-27T09:45:27.618Z,1011.78
2017-04-27T09:46:08.503Z,1011.22
2017-04-27T09:46:57.340Z,1011.84
2017-04-27T09:47:38.219Z,1011.91
2017-04-27T09:48:19.106Z,1011.82
2017-04-27T09:48:59.985Z,1011.85
2017-04-27T09:49:40.867Z,1011.84
2017-04-27T09:50:21.741Z,1011.33
2017-04-27T09:51:02.635Z,1011.81
2017-04-27T09:51:43.520Z,1011.24
2017-04-27T09:52:24.396Z,1011.71
2017-04-27T09:53:05.276Z,1011.7
2017-04-27T09:53:46.172Z,1011.19
2017-04-27T09:54:33.129Z,1011.1
2017-04-27T09:55:14.016Z,1011.12
2017-04-27T09:55:54.917Z,1011.08
2017-04-27T09:56:35.803Z,1011.07
2017-04-27T09:57:16.678Z,1011.09
2017-04-27T09:57:57.563Z,1011.08
2017-04-27T09:58:38.997Z,1011.13
2017-04-27T09:59:19.883Z,1011.15
2017-04-27T10:00:00.750Z,1011.21
2017-04-27T10:00:41.630Z,1011.11
2017-04-27T10:01:22.530Z,1011.08
2017-04-27T10:02:03.410Z,1011.56
2017-04-27T10:02:44.299Z,1011.55
2017-04-27T10:03:25.186Z,1011.06
2017-04-27T10:04:06.079Z,1011.06
2017-04-27T10:04:46.926Z,1011.04
2017-04-27T10:05:27.826Z,1011.08
2017-04-27T10:06:08.715Z,1011.11
2017-04-27T10:06:49.590Z,1011.07
2017-04-27T10:07:30.457Z,1011.08
2017-04-27T10:08:11.370Z,1011.11
2017-04-27T10:12:28.241Z,1011.69
2017-04-27T10:13:09.145Z,1011.65
2017-04-27T10:13:51.055Z,1011.62
2017-04-27T10:14:31.925Z,1011.64
2017-04-27T10:15:12.793Z,1011.57
2017-04-27T10:15:53.685Z,1011.47
2017-04-27T10:16:34.574Z,1011.27
2017-04-27T10:17:15.457Z,1011.15
2017-04-27T10:17:56.341Z,1011.07
2017-04-27T10:18:37.216Z,1011.22
2017-04-27T10:19:18.124Z,1011.35
2017-04-27T10:19:58.977Z,1011.55
2017-04-27T10:20:39.852Z,1011.43
2017-04-27T10:21:20.724Z,1011.32
2017-04-27T10:22:01.624Z,1011.2
2017-04-27T10:22:42.506Z,1011.09
2017-04-27T10:23:23.396Z,1011.07
2017-04-27T10:24:04.270Z,1011.09
2017-04-27T10:24:45.156Z,1011.22
2017-04-27T10:25:26.078Z,1011.11
2017-04-27T10:26:06.980Z,1011.44
2017-04-27T10:26:47.866Z,1011.66
2017-04-27T10:27:28.745Z,1011.63
2017-04-27T10:28:09.620Z,1011.61
2017-04-27T10:28:50.491Z,1011.65
2017-04-27T10:29:31.366Z,1011.63
2017-04-27T10:30:12.278Z,1011.61
2017-04-27T10:30:53.151Z,1011.61
2017-04-27T10:31:34.042Z,1011.14
2017-04-27T10:32:14.927Z,1010.95
2017-04-27T10:32:55.821Z,1011
2017-04-27T10:33:36.734Z,1011.07
2017-04-27T10:34:17.631Z,1011.5
2017-04-27T10:34:58.540Z,1011.09
2017-04-27T10:35:39.458Z,1011.05
2017-04-27T10:36:20.362Z,1011.06
2017-04-27T10:37:01.260Z,1011.1
2017-04-27T10:37:42.185Z,1011.11
2017-04-27T10:38:23.075Z,1011.03
2017-04-27T10:39:03.945Z,1011.05
2017-04-27T10:39:44.830Z,1011.13
2017-04-27T10:40:25.735Z,1011.6
2017-04-27T10:41:06.632Z,1011.11
2017-04-27T10:42:02.454Z,1011.12
2017-04-27T10:44:49.945Z,1011.02
2017-04-27T10:45:30.825Z,1011.09
2017-04-27T10:51:06.656Z,1011.05
2017-04-27T10:51:47.555Z,1011.02
2017-04-27T10:52:28.424Z,1010.97
2017-04-27T10:53:09.377Z,1011.37
2017-04-27T10:53:50.277Z,1011.1
2017-04-27T10:54:31.156Z,1010.97
2017-04-27T10:55:12.042Z,1010.95
2017-04-27T10:55:52.928Z,1011.08
2017-04-27T10:56:33.822Z,1011.15
2017-04-27T10:57:14.716Z,1011.31
2017-04-27T10:57:55.610Z,1011.35
2017-04-27T10:58:36.506Z,1010.94
2017-04-27T10:59:17.389Z,1010.94
2017-04-27T10:59:58.262Z,1010.94
2017-04-27T11:00:39.166Z,1010.91
2017-04-27T11:01:20.069Z,1011
2017-04-27T11:02:00.976Z,1010.96
2017-04-27T11:02:41.874Z,1010.99
2017-04-27T11:03:22.746Z,1010.98
2017-04-27T11:04:03.627Z,1011.12
2017-04-27T11:04:44.527Z,1011.37
2017-04-27T11:05:25.405Z,1011.34
2017-04-27T11:06:06.290Z,1011.32
2017-04-27T11:06:47.177Z,1011.33
2017-04-27T11:07:28.087Z,1011.15
2017-04-27T11:08:08.976Z,1011.11
2017-04-27T11:08:49.871Z,1011.14
2017-04-27T11:09:30.764Z,1011
2017-04-27T11:10:11.659Z,1011.28
2017-04-27T11:10:52.544Z,1011.33
2017-04-27T11:11:33.435Z,1011.21
2017-04-27T11:12:14.334Z,1011.11
2017-04-27T11:12:55.229Z,1011.28
2017-04-27T11:13:36.115Z,1011.17
2017-04-27T11:14:17.008Z,1011.11
2017-04-27T11:14:57.905Z,1011.12
2017-04-27T11:15:38.780Z,1011.06
2017-04-27T11:16:19.679Z,1011.06
2017-04-27T11:17:00.565Z,1011.02
2017-04-27T11:17:41.455Z,1011.07
2017-04-27T11:18:22.356Z,1011.06
2017-04-27T11:19:03.245Z,1011.11
2017-04-27T11:19:44.121Z,1011.15
2017-04-27T11:20:25.014Z,1011.14
2017-04-27T11:21:06.003Z,1011.12
2017-04-27T11:21:46.889Z,1011.1
2017-04-27T11:22:27.775Z,1011.11
2017-04-27T11:23:08.647Z,1011.18
2017-04-27T11:23:49.550Z,1011.09
2017-04-27T11:24:30.428Z,1011.09
2017-04-27T11:25:11.320Z,1011.12
2017-04-27T11:25:52.222Z,1011.12
2017-04-27T11:26:33.132Z,1011.12
2017-04-27T11:27:14.048Z,1011.02
2017-04-27T11:27:54.937Z,1010.91
2017-04-27T11:28:35.828Z,1010.89
2017-04-27T11:29:16.739Z,1010.95
2017-04-27T11:29:57.621Z,1010.96
2017-04-27T11:30:38.513Z,1010.9
2017-04-27T11:31:19.436Z,1010.83
2017-04-27T11:32:00.301Z,1010.83
2017-04-27T11:32:41.184Z,1010.82
2017-04-27T11:33:22.062Z,1010.78
2017-04-27T11:34:02.962Z,1010.83
2017-04-27T11:34:43.832Z,1010.92
2017-04-27T11:35:24.714Z,1010.94